Powder Springs, Tennessee
Current Conditions -  °F | °C
As of 7:15 AM on Tuesday 27 Jan 2015 (Local Time) from KMOR Reporting Station
Broken Clouds Broken Clouds  
Wind Chill: 23°   Ceiling: 800
Heat Index: 30°   Visibility: 3mi
Dew Point: 30°   Wind: 7mph
Humidity: 100%   Direction: 270°W
Pressure: 29.88"   Gusts: NA
Location:  36.25°N, 83.67°W
Report Text: KMOR 271215Z AUTO 27006KT 3SM BKN008 BKN017 M01/M01 A2988 RMK
Loading
Personal Weather Stations






























Interactive Weather Map New forecast layout! Learn more

10-Day Weather Forecast

Advertisements
Track Severe Weather on mobile